sensor_id;sensor_type;location;lat;lon;timestamp;temperature;humidity
11284;DHT22;5698;47.332;11.180;2022-12-11T00:01:23;-5.10;99.90
11284;DHT22;5698;47.332;11.180;2022-12-11T00:03:50;-5.10;99.90
11284;DHT22;5698;47.332;11.180;2022-12-11T00:06:20;-5.10;99.90
11284;DHT22;5698;47.332;11.180;2022-12-11T00:08:50;-5.10;99.90
11284;DHT22;5698;47.332;11.180;2022-12-11T00:11:18;-5.10;99.90
11284;DHT22;5698;47.332;11.180;2022-12-11T00:13:46;-5.10;99.90
11284;DHT22;5698;47.332;11.180;2022-12-11T00:16:13;-5.10;99.90
11284;DHT22;5698;47.332;11.180;2022-12-11T00:18:40;-5.00;99.90
11284;DHT22;5698;47.332;11.180;2022-12-11T00:21:11;-5.10;99.90
11284;DHT22;5698;47.332;11.180;2022-12-11T00:23:39;-5.10;99.90
11284;DHT22;5698;47.332;11.180;2022-12-11T00:26:08;-5.10;99.90
11284;DHT22;5698;47.332;11.180;2022-12-11T00:28:35;-5.10;99.90
11284;DHT22;5698;47.332;11.180;2022-12-11T00:31:03;-5.10;99.90
11284;DHT22;5698;47.332;11.180;2022-12-11T00:33:31;-5.10;99.90
11284;DHT22;5698;47.332;11.180;2022-12-11T00:35:58;-5.10;99.90
11284;DHT22;5698;47.332;11.180;2022-12-11T00:38:25;-5.10;99.90
11284;DHT22;5698;47.332;11.180;2022-12-11T00:40:57;-5.10;99.90
11284;DHT22;5698;47.332;11.180;2022-12-11T00:43:24;-5.10;99.90
11284;DHT22;5698;47.332;11.180;2022-12-11T00:45:51;-5.10;99.90
11284;DHT22;5698;47.332;11.180;2022-12-11T00:48:18;-5.20;99.90
11284;DHT22;5698;47.332;11.180;2022-12-11T00:50:45;-5.20;99.90
11284;DHT22;5698;47.332;11.180;2022-12-11T00:53:12;-5.10;99.90
11284;DHT22;5698;47.332;11.180;2022-12-11T00:55:40;-5.20;99.90
11284;DHT22;5698;47.332;11.180;2022-12-11T00:58:09;-5.20;99.90
11284;DHT22;5698;47.332;11.180;2022-12-11T01:00:38;-5.10;99.90
11284;DHT22;5698;47.332;11.180;2022-12-11T01:03:05;-5.10;99.90
11284;DHT22;5698;47.332;11.180;2022-12-11T01:05:32;-5.00;99.90
11284;DHT22;5698;47.332;11.180;2022-12-11T01:07:59;-5.00;99.90
11284;DHT22;5698;47.332;11.180;2022-12-11T01:10:27;-5.00;99.90
11284;DHT22;5698;47.332;11.180;2022-12-11T01:12:54;-5.00;99.90
11284;DHT22;5698;47.332;11.180;2022-12-11T01:15:24;-5.00;99.90
11284;DHT22;5698;47.332;11.180;2022-12-11T01:17:52;-5.00;99.90
11284;DHT22;5698;47.332;11.180;2022-12-11T01:20:19;-5.00;99.90
11284;DHT22;5698;47.332;11.180;2022-12-11T01:22:47;-5.00;99.90
11284;DHT22;5698;47.332;11.180;2022-12-11T01:25:14;-5.00;99.90
11284;DHT22;5698;47.332;11.180;2022-12-11T01:27:41;-5.00;99.90
11284;DHT22;5698;47.332;11.180;2022-12-11T01:30:09;-5.00;99.90
11284;DHT22;5698;47.332;11.180;2022-12-11T01:32:37;-5.00;99.90
11284;DHT22;5698;47.332;11.180;2022-12-11T01:35:06;-5.00;99.90
11284;DHT22;5698;47.332;11.180;2022-12-11T01:37:33;-5.00;99.90
11284;DHT22;5698;47.332;11.180;2022-12-11T01:40:00;-5.00;99.90
11284;DHT22;5698;47.332;11.180;2022-12-11T01:42:28;-5.00;99.90
11284;DHT22;5698;47.332;11.180;2022-12-11T01:45:23;-5.10;99.90
11284;DHT22;5698;47.332;11.180;2022-12-11T01:47:56;-5.20;99.90
11284;DHT22;5698;47.332;11.180;2022-12-11T01:50:25;-5.20;99.90
11284;DHT22;5698;47.332;11.180;2022-12-11T01:52:53;-5.10;99.90
11284;DHT22;5698;47.332;11.180;2022-12-11T01:55:20;-5.10;99.90
11284;DHT22;5698;47.332;11.180;2022-12-11T01:57:48;-5.20;99.90
11284;DHT22;5698;47.332;11.180;2022-12-11T02:00:17;-5.30;99.90
11284;DHT22;5698;47.332;11.180;2022-12-11T02:02:44;-5.30;99.90
11284;DHT22;5698;47.332;11.180;2022-12-11T02:05:13;-5.40;99.90
11284;DHT22;5698;47.332;11.180;2022-12-11T02:07:43;-5.40;99.90
11284;DHT22;5698;47.332;11.180;2022-12-11T02:10:12;-5.40;99.90
11284;DHT22;5698;47.332;11.180;2022-12-11T02:12:46;-5.40;99.90
11284;DHT22;5698;47.332;11.180;2022-12-11T02:15:24;-5.40;99.90
11284;DHT22;5698;47.332;11.180;2022-12-11T02:17:58;-5.40;99.90
11284;DHT22;5698;47.332;11.180;2022-12-11T02:20:32;-5.40;99.90
11284;DHT22;5698;47.332;11.180;2022-12-11T02:23:28;-5.40;99.90
11284;DHT22;5698;47.332;11.180;2022-12-11T02:26:11;-5.40;99.90
11284;DHT22;5698;47.332;11.180;2022-12-11T02:28:48;-5.40;99.90
11284;DHT22;5698;47.332;11.180;2022-12-11T02:31:22;-5.40;99.90
11284;DHT22;5698;47.332;11.180;2022-12-11T02:33:53;-5.30;99.90
11284;DHT22;5698;47.332;11.180;2022-12-11T02:36:26;-5.30;99.90
11284;DHT22;5698;47.332;11.180;2022-12-11T02:38:55;-5.30;99.90
11284;DHT22;5698;47.332;11.180;2022-12-11T02:41:26;-5.30;99.90
11284;DHT22;5698;47.332;11.180;2022-12-11T02:43:56;-5.30;99.90
11284;DHT22;5698;47.332;11.180;2022-12-11T02:46:24;-5.40;99.90
11284;DHT22;5698;47.332;11.180;2022-12-11T02:48:52;-5.40;99.90
11284;DHT22;5698;47.332;11.180;2022-12-11T02:51:23;-5.40;99.90
11284;DHT22;5698;47.332;11.180;2022-12-11T02:53:55;-5.40;99.90
11284;DHT22;5698;47.332;11.180;2022-12-11T02:56:28;-5.40;99.90
11284;DHT22;5698;47.332;11.180;2022-12-11T02:59:00;-5.40;99.90
11284;DHT22;5698;47.332;11.180;2022-12-11T03:01:29;-5.40;99.90
11284;DHT22;5698;47.332;11.180;2022-12-11T03:03:57;-5.40;99.90
11284;DHT22;5698;47.332;11.180;2022-12-11T03:06:28;-5.30;99.90
11284;DHT22;5698;47.332;11.180;2022-12-11T03:08:57;-5.40;99.90
11284;DHT22;5698;47.332;11.180;2022-12-11T03:11:24;-5.40;99.90
11284;DHT22;5698;47.332;11.180;2022-12-11T03:13:51;-5.50;99.90
11284;DHT22;5698;47.332;11.180;2022-12-11T03:16:26;-5.60;99.90
11284;DHT22;5698;47.332;11.180;2022-12-11T03:19:03;-5.60;99.90
11284;DHT22;5698;47.332;11.180;2022-12-11T03:21:34;-5.60;99.90
11284;DHT22;5698;47.332;11.180;2022-12-11T03:24:07;-5.60;99.90
11284;DHT22;5698;47.332;11.180;2022-12-11T03:26:39;-5.60;99.90
11284;DHT22;5698;47.332;11.180;2022-12-11T03:29:14;-5.60;99.90
11284;DHT22;5698;47.332;11.180;2022-12-11T03:31:51;-5.60;99.90
11284;DHT22;5698;47.332;11.180;2022-12-11T03:34:22;-5.60;99.90
11284;DHT22;5698;47.332;11.180;2022-12-11T03:36:51;-5.70;99.90
11284;DHT22;5698;47.332;11.180;2022-12-11T03:39:22;-5.70;99.90
11284;DHT22;5698;47.332;11.180;2022-12-11T03:41:50;-5.70;99.90
11284;DHT22;5698;47.332;11.180;2022-12-11T03:44:18;-5.70;99.90
11284;DHT22;5698;47.332;11.180;2022-12-11T03:46:49;-5.70;99.90
11284;DHT22;5698;47.332;11.180;2022-12-11T03:49:21;-5.60;99.90
11284;DHT22;5698;47.332;11.180;2022-12-11T03:51:50;-5.70;99.90
11284;DHT22;5698;47.332;11.180;2022-12-11T03:54:18;-5.70;99.90
11284;DHT22;5698;47.332;11.180;2022-12-11T03:56:47;-5.70;99.90
11284;DHT22;5698;47.332;11.180;2022-12-11T03:59:16;-5.70;99.90
11284;DHT22;5698;47.332;11.180;2022-12-11T04:01:43;-5.70;99.90
11284;DHT22;5698;47.332;11.180;2022-12-11T04:04:11;-5.70;99.90
11284;DHT22;5698;47.332;11.180;2022-12-11T04:06:38;-5.60;99.90
11284;DHT22;5698;47.332;11.180;2022-12-11T04:09:05;-5.60;99.90
11284;DHT22;5698;47.332;11.180;2022-12-11T04:11:32;-5.70;99.90
11284;DHT22;5698;47.332;11.180;2022-12-11T04:14:05;-5.70;99.90
11284;DHT22;5698;47.332;11.180;2022-12-11T04:16:50;-5.70;99.90
11284;DHT22;5698;47.332;11.180;2022-12-11T04:19:19;-5.80;99.90
11284;DHT22;5698;47.332;11.180;2022-12-11T04:22:04;-5.80;99.90
11284;DHT22;5698;47.332;11.180;2022-12-11T04:24:54;-5.80;99.90
11284;DHT22;5698;47.332;11.180;2022-12-11T04:27:21;-5.90;99.90
11284;DHT22;5698;47.332;11.180;2022-12-11T04:30:09;-5.90;99.90
11284;DHT22;5698;47.332;11.180;2022-12-11T04:32:36;-5.90;99.90
11284;DHT22;5698;47.332;11.180;2022-12-11T04:35:05;-5.90;99.90
11284;DHT22;5698;47.332;11.180;2022-12-11T04:37:33;-5.90;99.90
11284;DHT22;5698;47.332;11.180;2022-12-11T04:40:00;-5.80;99.90
11284;DHT22;5698;47.332;11.180;2022-12-11T04:42:27;-5.80;99.90
11284;DHT22;5698;47.332;11.180;2022-12-11T04:44:54;-5.70;99.90
11284;DHT22;5698;47.332;11.180;2022-12-11T04:47:21;-5.80;99.90
11284;DHT22;5698;47.332;11.180;2022-12-11T04:49:48;-5.70;99.90
11284;DHT22;5698;47.332;11.180;2022-12-11T04:52:17;-5.70;99.90
11284;DHT22;5698;47.332;11.180;2022-12-11T04:54:45;-5.70;99.90
11284;DHT22;5698;47.332;11.180;2022-12-11T04:57:12;-5.70;99.90
11284;DHT22;5698;47.332;11.180;2022-12-11T04:59:39;-5.70;99.90
11284;DHT22;5698;47.332;11.180;2022-12-11T05:02:06;-5.80;99.90
11284;DHT22;5698;47.332;11.180;2022-12-11T05:04:33;-5.90;99.90
11284;DHT22;5698;47.332;11.180;2022-12-11T05:07:01;-6.00;99.90
11284;DHT22;5698;47.332;11.180;2022-12-11T05:09:29;-6.00;99.90
11284;DHT22;5698;47.332;11.180;2022-12-11T05:11:56;-6.00;99.90
11284;DHT22;5698;47.332;11.180;2022-12-11T05:14:23;-6.10;99.90
11284;DHT22;5698;47.332;11.180;2022-12-11T05:16:51;-6.10;99.90
11284;DHT22;5698;47.332;11.180;2022-12-11T05:19:17;-6.10;99.90
11284;DHT22;5698;47.332;11.180;2022-12-11T05:21:44;-6.10;99.90
11284;DHT22;5698;47.332;11.180;2022-12-11T05:24:11;-6.10;99.90
11284;DHT22;5698;47.332;11.180;2022-12-11T05:26:40;-6.20;99.90
11284;DHT22;5698;47.332;11.180;2022-12-11T05:29:07;-6.10;99.90
11284;DHT22;5698;47.332;11.180;2022-12-11T05:31:34;-6.10;99.90
11284;DHT22;5698;47.332;11.180;2022-12-11T05:34:01;-6.10;99.90
11284;DHT22;5698;47.332;11.180;2022-12-11T05:36:30;-6.10;99.90
11284;DHT22;5698;47.332;11.180;2022-12-11T05:38:57;-6.10;99.90
11284;DHT22;5698;47.332;11.180;2022-12-11T05:41:27;-6.20;99.90
11284;DHT22;5698;47.332;11.180;2022-12-11T05:43:55;-6.10;99.90
11284;DHT22;5698;47.332;11.180;2022-12-11T05:46:24;-6.10;99.90
11284;DHT22;5698;47.332;11.180;2022-12-11T05:48:53;-6.20;99.90
11284;DHT22;5698;47.332;11.180;2022-12-11T05:51:21;-6.20;99.90
11284;DHT22;5698;47.332;11.180;2022-12-11T05:53:50;-6.30;99.90
11284;DHT22;5698;47.332;11.180;2022-12-11T05:56:19;-6.30;99.90
11284;DHT22;5698;47.332;11.180;2022-12-11T05:58:47;-6.40;99.90
11284;DHT22;5698;47.332;11.180;2022-12-11T06:01:19;-6.40;99.90
11284;DHT22;5698;47.332;11.180;2022-12-11T06:03:46;-6.40;99.90
11284;DHT22;5698;47.332;11.180;2022-12-11T06:06:14;-6.40;99.90
11284;DHT22;5698;47.332;11.180;2022-12-11T06:08:41;-6.40;99.90
11284;DHT22;5698;47.332;11.180;2022-12-11T06:11:10;-6.30;99.90
11284;DHT22;5698;47.332;11.180;2022-12-11T06:13:37;-6.30;99.90
11284;DHT22;5698;47.332;11.180;2022-12-11T06:16:05;-6.30;99.90
11284;DHT22;5698;47.332;11.180;2022-12-11T06:18:36;-6.30;99.90
11284;DHT22;5698;47.332;11.180;2022-12-11T06:21:10;-6.40;99.90
11284;DHT22;5698;47.332;11.180;2022-12-11T06:23:38;-6.50;99.90
11284;DHT22;5698;47.332;11.180;2022-12-11T06:26:06;-6.50;99.90
11284;DHT22;5698;47.332;11.180;2022-12-11T06:28:33;-6.60;99.90
11284;DHT22;5698;47.332;11.180;2022-12-11T06:31:00;-6.60;99.90
11284;DHT22;5698;47.332;11.180;2022-12-11T06:33:28;-6.60;99.90
11284;DHT22;5698;47.332;11.180;2022-12-11T06:35:59;-6.70;99.90
11284;DHT22;5698;47.332;11.180;2022-12-11T06:38:26;-6.60;99.90
11284;DHT22;5698;47.332;11.180;2022-12-11T06:40:54;-6.60;99.90
11284;DHT22;5698;47.332;11.180;2022-12-11T06:43:21;-6.60;99.90
11284;DHT22;5698;47.332;11.180;2022-12-11T06:45:48;-6.50;99.90
11284;DHT22;5698;47.332;11.180;2022-12-11T06:48:15;-6.50;99.90
11284;DHT22;5698;47.332;11.180;2022-12-11T06:50:42;-6.30;99.90
11284;DHT22;5698;47.332;11.180;2022-12-11T06:53:12;-6.40;99.90
11284;DHT22;5698;47.332;11.180;2022-12-11T06:55:40;-6.40;99.90
11284;DHT22;5698;47.332;11.180;2022-12-11T06:58:08;-6.40;99.90
11284;DHT22;5698;47.332;11.180;2022-12-11T07:00:36;-6.40;99.90
11284;DHT22;5698;47.332;11.180;2022-12-11T07:03:04;-6.30;99.90
11284;DHT22;5698;47.332;11.180;2022-12-11T07:05:32;-6.40;99.90
11284;DHT22;5698;47.332;11.180;2022-12-11T07:07:59;-6.40;99.90
11284;DHT22;5698;47.332;11.180;2022-12-11T07:10:27;-6.30;99.90
11284;DHT22;5698;47.332;11.180;2022-12-11T07:12:54;-6.40;99.90
11284;DHT22;5698;47.332;11.180;2022-12-11T07:15:21;-6.50;99.90
11284;DHT22;5698;47.332;11.180;2022-12-11T07:17:48;-6.40;99.90
11284;DHT22;5698;47.332;11.180;2022-12-11T07:20:15;-6.40;99.90
11284;DHT22;5698;47.332;11.180;2022-12-11T07:22:43;-6.40;99.90
11284;DHT22;5698;47.332;11.180;2022-12-11T07:25:10;-6.30;99.90
11284;DHT22;5698;47.332;11.180;2022-12-11T07:27:38;-6.40;99.90
11284;DHT22;5698;47.332;11.180;2022-12-11T07:30:07;-6.40;99.90
11284;DHT22;5698;47.332;11.180;2022-12-11T07:32:35;-6.40;99.90
11284;DHT22;5698;47.332;11.180;2022-12-11T07:35:02;-6.30;99.90
11284;DHT22;5698;47.332;11.180;2022-12-11T07:37:29;-6.40;99.90
11284;DHT22;5698;47.332;11.180;2022-12-11T07:39:56;-6.40;99.90
11284;DHT22;5698;47.332;11.180;2022-12-11T07:42:23;-6.30;99.90
11284;DHT22;5698;47.332;11.180;2022-12-11T07:44:52;-6.40;99.90
11284;DHT22;5698;47.332;11.180;2022-12-11T07:47:19;-6.40;99.90
11284;DHT22;5698;47.332;11.180;2022-12-11T07:49:47;-6.40;99.90
11284;DHT22;5698;47.332;11.180;2022-12-11T07:52:14;-6.40;99.90
11284;DHT22;5698;47.332;11.180;2022-12-11T07:54:41;-6.40;99.90
11284;DHT22;5698;47.332;11.180;2022-12-11T07:57:08;-6.30;99.90
11284;DHT22;5698;47.332;11.180;2022-12-11T07:59:35;-6.40;99.90
11284;DHT22;5698;47.332;11.180;2022-12-11T08:02:03;-6.30;99.90
11284;DHT22;5698;47.332;11.180;2022-12-11T08:04:30;-6.30;99.90
11284;DHT22;5698;47.332;11.180;2022-12-11T08:06:58;-6.30;99.90
11284;DHT22;5698;47.332;11.180;2022-12-11T08:09:25;-6.20;99.90
11284;DHT22;5698;47.332;11.180;2022-12-11T08:11:52;-6.20;99.90
11284;DHT22;5698;47.332;11.180;2022-12-11T08:14:19;-6.10;99.90
11284;DHT22;5698;47.332;11.180;2022-12-11T08:16:46;-6.10;99.90
11284;DHT22;5698;47.332;11.180;2022-12-11T08:19:15;-6.10;99.90
11284;DHT22;5698;47.332;11.180;2022-12-11T08:21:42;-6.10;99.90
11284;DHT22;5698;47.332;11.180;2022-12-11T08:24:09;-6.10;99.90
11284;DHT22;5698;47.332;11.180;2022-12-11T08:26:37;-6.10;99.90
11284;DHT22;5698;47.332;11.180;2022-12-11T08:29:04;-6.00;99.90
11284;DHT22;5698;47.332;11.180;2022-12-11T08:31:31;-6.00;99.90
11284;DHT22;5698;47.332;11.180;2022-12-11T08:33:58;-5.90;99.90
11284;DHT22;5698;47.332;11.180;2022-12-11T08:36:26;-5.90;99.90
11284;DHT22;5698;47.332;11.180;2022-12-11T08:38:54;-5.80;99.90
11284;DHT22;5698;47.332;11.180;2022-12-11T08:41:24;-5.80;99.90
11284;DHT22;5698;47.332;11.180;2022-12-11T08:43:51;-5.80;99.90
11284;DHT22;5698;47.332;11.180;2022-12-11T08:46:20;-5.70;99.90
11284;DHT22;5698;47.332;11.180;2022-12-11T08:48:49;-5.70;99.90
11284;DHT22;5698;47.332;11.180;2022-12-11T08:51:17;-5.70;99.90
11284;DHT22;5698;47.332;11.180;2022-12-11T08:53:46;-5.70;99.90
11284;DHT22;5698;47.332;11.180;2022-12-11T08:56:16;-5.70;99.90
11284;DHT22;5698;47.332;11.180;2022-12-11T08:58:43;-5.70;99.90
11284;DHT22;5698;47.332;11.180;2022-12-11T09:01:11;-5.60;99.90
11284;DHT22;5698;47.332;11.180;2022-12-11T09:03:39;-5.50;99.90
11284;DHT22;5698;47.332;11.180;2022-12-11T09:06:08;-5.40;99.90
11284;DHT22;5698;47.332;11.180;2022-12-11T09:08:36;-5.30;99.90
11284;DHT22;5698;47.332;11.180;2022-12-11T09:11:06;-5.10;99.90
11284;DHT22;5698;47.332;11.180;2022-12-11T09:13:34;-5.00;99.90
11284;DHT22;5698;47.332;11.180;2022-12-11T09:16:03;-5.00;99.90
11284;DHT22;5698;47.332;11.180;2022-12-11T09:18:30;-4.90;99.90
11284;DHT22;5698;47.332;11.180;2022-12-11T09:20:58;-4.80;99.90
11284;DHT22;5698;47.332;11.180;2022-12-11T09:23:25;-4.70;99.90
11284;DHT22;5698;47.332;11.180;2022-12-11T09:25:52;-4.60;99.90
11284;DHT22;5698;47.332;11.180;2022-12-11T09:28:21;-4.30;99.90
11284;DHT22;5698;47.332;11.180;2022-12-11T09:30:48;-4.00;99.90
11284;DHT22;5698;47.332;11.180;2022-12-11T09:33:15;-3.80;99.90
11284;DHT22;5698;47.332;11.180;2022-12-11T09:35:43;-3.60;99.90
11284;DHT22;5698;47.332;11.180;2022-12-11T09:38:10;-3.40;99.90
11284;DHT22;5698;47.332;11.180;2022-12-11T09:40:39;-3.30;99.90
11284;DHT22;5698;47.332;11.180;2022-12-11T09:43:21;-3.30;99.90
11284;DHT22;5698;47.332;11.180;2022-12-11T09:45:54;-3.20;99.90
11284;DHT22;5698;47.332;11.180;2022-12-11T09:48:23;-3.20;99.90
11284;DHT22;5698;47.332;11.180;2022-12-11T09:50:53;-3.20;99.90
11284;DHT22;5698;47.332;11.180;2022-12-11T09:53:25;-3.10;99.90
11284;DHT22;5698;47.332;11.180;2022-12-11T09:55:55;-3.10;99.90
11284;DHT22;5698;47.332;11.180;2022-12-11T09:58:33;-3.00;99.90
11284;DHT22;5698;47.332;11.180;2022-12-11T10:01:10;-2.80;99.90
11284;DHT22;5698;47.332;11.180;2022-12-11T10:06:42;-2.70;99.90
11284;DHT22;5698;47.332;11.180;2022-12-11T10:09:17;-2.40;99.90
11284;DHT22;5698;47.332;11.180;2022-12-11T10:11:56;-2.30;99.90
11284;DHT22;5698;47.332;11.180;2022-12-11T10:14:29;-2.20;99.90
11284;DHT22;5698;47.332;11.180;2022-12-11T10:17:05;-2.30;99.90
11284;DHT22;5698;47.332;11.180;2022-12-11T10:19:35;-2.40;99.90
11284;DHT22;5698;47.332;11.180;2022-12-11T10:22:03;-2.40;99.90
11284;DHT22;5698;47.332;11.180;2022-12-11T10:24:35;-2.30;99.90
11284;DHT22;5698;47.332;11.180;2022-12-11T10:27:13;-2.20;99.90
11284;DHT22;5698;47.332;11.180;2022-12-11T10:29:40;-2.10;99.90
11284;DHT22;5698;47.332;11.180;2022-12-11T10:32:18;-2.20;99.90
11284;DHT22;5698;47.332;11.180;2022-12-11T10:34:50;-2.20;99.90
11284;DHT22;5698;47.332;11.180;2022-12-11T10:37:20;-2.30;99.90
11284;DHT22;5698;47.332;11.180;2022-12-11T10:39:47;-2.40;99.90
11284;DHT22;5698;47.332;11.180;2022-12-11T10:42:19;-2.50;99.90
11284;DHT22;5698;47.332;11.180;2022-12-11T10:44:58;-2.90;99.90
11284;DHT22;5698;47.332;11.180;2022-12-11T10:47:28;-3.10;99.90
11284;DHT22;5698;47.332;11.180;2022-12-11T10:49:57;-3.50;99.90
11284;DHT22;5698;47.332;11.180;2022-12-11T10:52:27;-3.80;99.90
11284;DHT22;5698;47.332;11.180;2022-12-11T10:55:00;-3.70;99.90
11284;DHT22;5698;47.332;11.180;2022-12-11T10:57:29;-3.70;99.90
11284;DHT22;5698;47.332;11.180;2022-12-11T10:59:58;-3.60;99.90
11284;DHT22;5698;47.332;11.180;2022-12-11T11:02:30;-3.50;99.90
11284;DHT22;5698;47.332;11.180;2022-12-11T11:04:58;-3.50;99.90
11284;DHT22;5698;47.332;11.180;2022-12-11T11:07:27;-3.50;99.90
11284;DHT22;5698;47.332;11.180;2022-12-11T11:10:05;-3.50;99.90
11284;DHT22;5698;47.332;11.180;2022-12-11T11:12:42;-3.50;99.90
11284;DHT22;5698;47.332;11.180;2022-12-11T11:15:12;-3.60;99.90
11284;DHT22;5698;47.332;11.180;2022-12-11T11:17:44;-3.60;99.90
11284;DHT22;5698;47.332;11.180;2022-12-11T11:20:14;-3.70;99.90
11284;DHT22;5698;47.332;11.180;2022-12-11T11:22:44;-3.80;99.90
11284;DHT22;5698;47.332;11.180;2022-12-11T11:25:17;-3.70;99.90
11284;DHT22;5698;47.332;11.180;2022-12-11T11:27:49;-3.70;99.90
11284;DHT22;5698;47.332;11.180;2022-12-11T11:30:19;-3.70;99.90
11284;DHT22;5698;47.332;11.180;2022-12-11T11:32:49;-3.70;99.90
11284;DHT22;5698;47.332;11.180;2022-12-11T11:35:19;-3.60;99.90
11284;DHT22;5698;47.332;11.180;2022-12-11T11:37:54;-3.60;99.90
11284;DHT22;5698;47.332;11.180;2022-12-11T11:40:25;-3.50;99.90
11284;DHT22;5698;47.332;11.180;2022-12-11T11:43:01;-3.50;99.90
11284;DHT22;5698;47.332;11.180;2022-12-11T11:45:33;-3.60;99.90
11284;DHT22;5698;47.332;11.180;2022-12-11T11:48:12;-3.60;99.90
11284;DHT22;5698;47.332;11.180;2022-12-11T11:50:44;-3.60;99.90
11284;DHT22;5698;47.332;11.180;2022-12-11T11:53:19;-3.70;99.90
11284;DHT22;5698;47.332;11.180;2022-12-11T11:55:53;-3.70;99.90
11284;DHT22;5698;47.332;11.180;2022-12-11T11:58:26;-3.80;99.90
11284;DHT22;5698;47.332;11.180;2022-12-11T12:00:56;-3.80;99.90
11284;DHT22;5698;47.332;11.180;2022-12-11T12:03:24;-3.90;99.90
11284;DHT22;5698;47.332;11.180;2022-12-11T12:05:56;-4.00;99.90
11284;DHT22;5698;47.332;11.180;2022-12-11T12:08:38;-3.90;99.90
11284;DHT22;5698;47.332;11.180;2022-12-11T12:11:16;-4.00;99.90
11284;DHT22;5698;47.332;11.180;2022-12-11T12:13:49;-4.10;99.90
11284;DHT22;5698;47.332;11.180;2022-12-11T12:16:27;-4.10;99.90
11284;DHT22;5698;47.332;11.180;2022-12-11T12:19:02;-3.90;99.90
11284;DHT22;5698;47.332;11.180;2022-12-11T12:21:34;-3.80;99.90
11284;DHT22;5698;47.332;11.180;2022-12-11T12:24:12;-3.90;99.90
11284;DHT22;5698;47.332;11.180;2022-12-11T12:26:44;-3.80;99.90
11284;DHT22;5698;47.332;11.180;2022-12-11T12:29:18;-3.70;99.90
11284;DHT22;5698;47.332;11.180;2022-12-11T12:31:58;-3.60;99.90
11284;DHT22;5698;47.332;11.180;2022-12-11T12:34:44;-3.60;99.90
11284;DHT22;5698;47.332;11.180;2022-12-11T12:37:21;-3.70;99.90
11284;DHT22;5698;47.332;11.180;2022-12-11T12:39:59;-3.80;99.90
11284;DHT22;5698;47.332;11.180;2022-12-11T12:42:34;-3.80;99.90
11284;DHT22;5698;47.332;11.180;2022-12-11T12:45:13;-3.90;99.90
11284;DHT22;5698;47.332;11.180;2022-12-11T12:47:45;-4.00;99.90
11284;DHT22;5698;47.332;11.180;2022-12-11T12:50:16;-4.20;99.90
11284;DHT22;5698;47.332;11.180;2022-12-11T12:52:45;-4.10;99.90
11284;DHT22;5698;47.332;11.180;2022-12-11T12:55:19;-4.20;99.90
11284;DHT22;5698;47.332;11.180;2022-12-11T12:57:49;-4.10;99.90
11284;DHT22;5698;47.332;11.180;2022-12-11T13:00:30;-4.00;99.90
11284;DHT22;5698;47.332;11.180;2022-12-11T13:02:58;-4.10;99.90
11284;DHT22;5698;47.332;11.180;2022-12-11T13:05:31;-4.10;99.90
11284;DHT22;5698;47.332;11.180;2022-12-11T13:08:00;-4.10;99.90
11284;DHT22;5698;47.332;11.180;2022-12-11T13:10:30;-4.00;99.90
11284;DHT22;5698;47.332;11.180;2022-12-11T13:12:58;-4.10;99.90
11284;DHT22;5698;47.332;11.180;2022-12-11T13:15:32;-4.10;99.90
11284;DHT22;5698;47.332;11.180;2022-12-11T13:18:01;-4.20;99.90
11284;DHT22;5698;47.332;11.180;2022-12-11T13:20:31;-4.20;99.90
11284;DHT22;5698;47.332;11.180;2022-12-11T13:23:16;-4.20;99.90
11284;DHT22;5698;47.332;11.180;2022-12-11T13:25:51;-4.20;99.90
11284;DHT22;5698;47.332;11.180;2022-12-11T13:28:23;-4.10;99.90
11284;DHT22;5698;47.332;11.180;2022-12-11T13:31:05;-4.00;99.90
11284;DHT22;5698;47.332;11.180;2022-12-11T13:33:40;-4.20;99.90
11284;DHT22;5698;47.332;11.180;2022-12-11T13:36:29;-4.40;99.90
11284;DHT22;5698;47.332;11.180;2022-12-11T13:39:00;-4.50;99.90
11284;DHT22;5698;47.332;11.180;2022-12-11T13:41:29;-4.60;99.90
11284;DHT22;5698;47.332;11.180;2022-12-11T13:43:59;-4.60;99.90
11284;DHT22;5698;47.332;11.180;2022-12-11T13:46:28;-4.70;99.90
11284;DHT22;5698;47.332;11.180;2022-12-11T13:48:58;-4.80;99.90
11284;DHT22;5698;47.332;11.180;2022-12-11T13:51:29;-5.00;99.90
11284;DHT22;5698;47.332;11.180;2022-12-11T13:54:13;-5.00;99.90
11284;DHT22;5698;47.332;11.180;2022-12-11T13:56:55;-5.00;99.90
11284;DHT22;5698;47.332;11.180;2022-12-11T13:59:25;-5.10;99.90
11284;DHT22;5698;47.332;11.180;2022-12-11T14:01:54;-5.20;99.90
11284;DHT22;5698;47.332;11.180;2022-12-11T14:04:23;-5.20;99.90
11284;DHT22;5698;47.332;11.180;2022-12-11T14:06:52;-5.20;99.90
11284;DHT22;5698;47.332;11.180;2022-12-11T14:09:22;-5.20;99.90
11284;DHT22;5698;47.332;11.180;2022-12-11T14:11:51;-5.20;99.90
11284;DHT22;5698;47.332;11.180;2022-12-11T14:14:25;-5.20;99.90
11284;DHT22;5698;47.332;11.180;2022-12-11T14:16:54;-5.20;99.90
11284;DHT22;5698;47.332;11.180;2022-12-11T14:19:22;-5.20;99.90
11284;DHT22;5698;47.332;11.180;2022-12-11T14:21:57;-5.10;99.90
11284;DHT22;5698;47.332;11.180;2022-12-11T14:24:24;-5.10;99.90
11284;DHT22;5698;47.332;11.180;2022-12-11T14:26:52;-5.00;99.90
11284;DHT22;5698;47.332;11.180;2022-12-11T14:29:26;-5.10;99.90
11284;DHT22;5698;47.332;11.180;2022-12-11T14:31:58;-5.20;99.90
11284;DHT22;5698;47.332;11.180;2022-12-11T14:34:29;-5.30;99.90
11284;DHT22;5698;47.332;11.180;2022-12-11T14:37:00;-5.40;99.90
11284;DHT22;5698;47.332;11.180;2022-12-11T14:39:31;-5.50;99.90
11284;DHT22;5698;47.332;11.180;2022-12-11T14:42:02;-5.60;99.90
11284;DHT22;5698;47.332;11.180;2022-12-11T14:44:34;-5.60;99.90
11284;DHT22;5698;47.332;11.180;2022-12-11T14:47:03;-5.50;99.90
11284;DHT22;5698;47.332;11.180;2022-12-11T14:49:36;-5.40;99.90
11284;DHT22;5698;47.332;11.180;2022-12-11T14:52:12;-5.40;99.90
11284;DHT22;5698;47.332;11.180;2022-12-11T14:54:44;-5.40;99.90
11284;DHT22;5698;47.332;11.180;2022-12-11T14:57:18;-5.50;99.90
11284;DHT22;5698;47.332;11.180;2022-12-11T14:59:47;-5.40;99.90
11284;DHT22;5698;47.332;11.180;2022-12-11T15:02:24;-5.40;99.90
11284;DHT22;5698;47.332;11.180;2022-12-11T15:05:06;-5.40;99.90
11284;DHT22;5698;47.332;11.180;2022-12-11T15:07:38;-5.30;99.90
11284;DHT22;5698;47.332;11.180;2022-12-11T15:10:19;-5.30;99.90
11284;DHT22;5698;47.332;11.180;2022-12-11T15:12:46;-5.40;99.90
11284;DHT22;5698;47.332;11.180;2022-12-11T15:15:14;-5.40;99.90
11284;DHT22;5698;47.332;11.180;2022-12-11T15:17:42;-5.50;99.90
11284;DHT22;5698;47.332;11.180;2022-12-11T15:20:20;-5.50;99.90
11284;DHT22;5698;47.332;11.180;2022-12-11T15:22:50;-5.50;99.90
11284;DHT22;5698;47.332;11.180;2022-12-11T15:25:19;-5.50;99.90
11284;DHT22;5698;47.332;11.180;2022-12-11T15:27:49;-5.50;99.90
11284;DHT22;5698;47.332;11.180;2022-12-11T15:30:28;-5.40;99.90
11284;DHT22;5698;47.332;11.180;2022-12-11T15:33:18;-5.40;99.90
11284;DHT22;5698;47.332;11.180;2022-12-11T15:35:55;-5.40;99.90
11284;DHT22;5698;47.332;11.180;2022-12-11T15:38:30;-5.50;99.90
11284;DHT22;5698;47.332;11.180;2022-12-11T15:40:58;-5.60;99.90
11284;DHT22;5698;47.332;11.180;2022-12-11T15:43:25;-5.80;99.90
11284;DHT22;5698;47.332;11.180;2022-12-11T15:45:52;-5.90;99.90
11284;DHT22;5698;47.332;11.180;2022-12-11T15:48:19;-6.00;99.90
11284;DHT22;5698;47.332;11.180;2022-12-11T15:50:46;-5.90;99.90
11284;DHT22;5698;47.332;11.180;2022-12-11T15:53:13;-6.00;99.90